sensor_id;sensor_type;location;lat;lon;timestamp;P1;durP1;ratioP1;P2;durP2;ratioP2
6985;SDS011;3533;51.246;6.850;2022-11-20T00:01:05;6.13;;;5.63;;
6985;SDS011;3533;51.246;6.850;2022-11-20T00:03:32;6.77;;;6.20;;
6985;SDS011;3533;51.246;6.850;2022-11-20T00:06:01;7.33;;;6.80;;
6985;SDS011;3533;51.246;6.850;2022-11-20T00:08:31;6.13;;;5.70;;
6985;SDS011;3533;51.246;6.850;2022-11-20T00:10:57;5.30;;;5.00;;
6985;SDS011;3533;51.246;6.850;2022-11-20T00:13:30;6.90;;;6.37;;
6985;SDS011;3533;51.246;6.850;2022-11-20T00:15:57;6.13;;;5.67;;
6985;SDS011;3533;51.246;6.850;2022-11-20T00:18:24;6.30;;;5.83;;
6985;SDS011;3533;51.246;6.850;2022-11-20T00:20:50;7.00;;;6.47;;
6985;SDS011;3533;51.246;6.850;2022-11-20T00:23:16;6.63;;;6.10;;
6985;SDS011;3533;51.246;6.850;2022-11-20T00:25:41;6.60;;;6.10;;
6985;SDS011;3533;51.246;6.850;2022-11-20T00:28:07;5.80;;;5.40;;
6985;SDS011;3533;51.246;6.850;2022-11-20T00:30:32;6.37;;;5.87;;
6985;SDS011;3533;51.246;6.850;2022-11-20T00:32:58;6.53;;;6.13;;
6985;SDS011;3533;51.246;6.850;2022-11-20T00:35:23;5.90;;;5.40;;
6985;SDS011;3533;51.246;6.850;2022-11-20T00:37:49;6.43;;;5.90;;
6985;SDS011;3533;51.246;6.850;2022-11-20T00:40:15;6.00;;;5.60;;
6985;SDS011;3533;51.246;6.850;2022-11-20T00:42:40;6.23;;;5.70;;
6985;SDS011;3533;51.246;6.850;2022-11-20T00:45:06;5.93;;;5.57;;
6985;SDS011;3533;51.246;6.850;2022-11-20T00:47:32;6.07;;;5.57;;
6985;SDS011;3533;51.246;6.850;2022-11-20T00:49:57;5.83;;;5.43;;
6985;SDS011;3533;51.246;6.850;2022-11-20T00:52:23;6.30;;;5.87;;
6985;SDS011;3533;51.246;6.850;2022-11-20T00:54:48;6.93;;;6.43;;
6985;SDS011;3533;51.246;6.850;2022-11-20T00:57:14;5.30;;;5.00;;
6985;SDS011;3533;51.246;6.850;2022-11-20T00:59:39;5.90;;;5.50;;
6985;SDS011;3533;51.246;6.850;2022-11-20T01:02:05;6.13;;;5.73;;
6985;SDS011;3533;51.246;6.850;2022-11-20T01:04:30;5.80;;;5.40;;
6985;SDS011;3533;51.246;6.850;2022-11-20T01:06:56;6.00;;;5.60;;
6985;SDS011;3533;51.246;6.850;2022-11-20T01:09:21;5.23;;;4.83;;
6985;SDS011;3533;51.246;6.850;2022-11-20T01:11:47;4.90;;;4.50;;
6985;SDS011;3533;51.246;6.850;2022-11-20T01:14:14;5.50;;;5.10;;
6985;SDS011;3533;51.246;6.850;2022-11-20T01:16:44;5.73;;;5.23;;
6985;SDS011;3533;51.246;6.850;2022-11-20T01:19:12;5.83;;;5.33;;
6985;SDS011;3533;51.246;6.850;2022-11-20T01:21:41;5.17;;;4.87;;
6985;SDS011;3533;51.246;6.850;2022-11-20T01:24:08;5.90;;;5.50;;
6985;SDS011;3533;51.246;6.850;2022-11-20T01:26:37;5.77;;;5.03;;
6985;SDS011;3533;51.246;6.850;2022-11-20T01:29:03;6.40;;;5.83;;
6985;SDS011;3533;51.246;6.850;2022-11-20T01:31:34;4.83;;;4.43;;
6985;SDS011;3533;51.246;6.850;2022-11-20T01:34:01;5.27;;;4.83;;
6985;SDS011;3533;51.246;6.850;2022-11-20T01:36:33;5.80;;;5.43;;
6985;SDS011;3533;51.246;6.850;2022-11-20T01:39:04;4.93;;;4.60;;
6985;SDS011;3533;51.246;6.850;2022-11-20T01:41:32;5.60;;;5.20;;
6985;SDS011;3533;51.246;6.850;2022-11-20T01:44:20;5.63;;;5.23;;
6985;SDS011;3533;51.246;6.850;2022-11-20T01:46:51;5.70;;;5.30;;
6985;SDS011;3533;51.246;6.850;2022-11-20T01:49:28;5.60;;;5.23;;
6985;SDS011;3533;51.246;6.850;2022-11-20T01:52:16;5.03;;;4.73;;
6985;SDS011;3533;51.246;6.850;2022-11-20T01:54:49;5.30;;;5.00;;
6985;SDS011;3533;51.246;6.850;2022-11-20T01:57:20;5.17;;;4.87;;
6985;SDS011;3533;51.246;6.850;2022-11-20T01:59:51;5.40;;;4.90;;
6985;SDS011;3533;51.246;6.850;2022-11-20T02:02:47;4.97;;;4.67;;
6985;SDS011;3533;51.246;6.850;2022-11-20T02:07:58;6.70;;;5.63;;
6985;SDS011;3533;51.246;6.850;2022-11-20T02:10:24;4.87;;;4.60;;
6985;SDS011;3533;51.246;6.850;2022-11-20T02:12:52;4.83;;;4.53;;
6985;SDS011;3533;51.246;6.850;2022-11-20T02:15:36;5.30;;;4.90;;
6985;SDS011;3533;51.246;6.850;2022-11-20T02:18:02;5.50;;;5.10;;
6985;SDS011;3533;51.246;6.850;2022-11-20T02:20:28;4.63;;;4.33;;
6985;SDS011;3533;51.246;6.850;2022-11-20T02:25:19;5.50;;;5.20;;
6985;SDS011;3533;51.246;6.850;2022-11-20T02:27:45;4.80;;;4.60;;
6985;SDS011;3533;51.246;6.850;2022-11-20T02:30:11;5.03;;;4.73;;
6985;SDS011;3533;51.246;6.850;2022-11-20T02:32:37;4.67;;;4.47;;
6985;SDS011;3533;51.246;6.850;2022-11-20T02:37:34;5.10;;;4.70;;
6985;SDS011;3533;51.246;6.850;2022-11-20T02:40:03;5.10;;;4.80;;
6985;SDS011;3533;51.246;6.850;2022-11-20T02:42:29;5.10;;;4.83;;
6985;SDS011;3533;51.246;6.850;2022-11-20T02:44:55;5.10;;;4.80;;
6985;SDS011;3533;51.246;6.850;2022-11-20T02:47:20;4.70;;;4.40;;
6985;SDS011;3533;51.246;6.850;2022-11-20T02:49:46;5.50;;;5.20;;
6985;SDS011;3533;51.246;6.850;2022-11-20T02:52:11;4.77;;;4.37;;
6985;SDS011;3533;51.246;6.850;2022-11-20T02:54:37;4.80;;;4.50;;
6985;SDS011;3533;51.246;6.850;2022-11-20T02:57:02;5.07;;;4.73;;
6985;SDS011;3533;51.246;6.850;2022-11-20T02:59:28;5.60;;;5.20;;
6985;SDS011;3533;51.246;6.850;2022-11-20T03:01:53;4.23;;;3.93;;
6985;SDS011;3533;51.246;6.850;2022-11-20T03:04:19;4.77;;;4.43;;
6985;SDS011;3533;51.246;6.850;2022-11-20T03:06:44;5.10;;;4.80;;
6985;SDS011;3533;51.246;6.850;2022-11-20T03:09:10;4.47;;;4.20;;
6985;SDS011;3533;51.246;6.850;2022-11-20T03:11:36;5.43;;;4.97;;
6985;SDS011;3533;51.246;6.850;2022-11-20T03:14:02;4.90;;;4.60;;
6985;SDS011;3533;51.246;6.850;2022-11-20T03:16:30;5.00;;;4.70;;
6985;SDS011;3533;51.246;6.850;2022-11-20T03:18:56;5.30;;;4.93;;
6985;SDS011;3533;51.246;6.850;2022-11-20T03:21:22;4.70;;;4.40;;
6985;SDS011;3533;51.246;6.850;2022-11-20T03:23:47;5.00;;;4.70;;
6985;SDS011;3533;51.246;6.850;2022-11-20T03:26:14;4.20;;;4.00;;
6985;SDS011;3533;51.246;6.850;2022-11-20T03:28:42;4.23;;;3.93;;
6985;SDS011;3533;51.246;6.850;2022-11-20T03:31:13;4.77;;;4.47;;
6985;SDS011;3533;51.246;6.850;2022-11-20T03:33:40;5.10;;;4.80;;
6985;SDS011;3533;51.246;6.850;2022-11-20T03:36:08;4.80;;;4.40;;
6985;SDS011;3533;51.246;6.850;2022-11-20T03:38:36;4.93;;;4.57;;
6985;SDS011;3533;51.246;6.850;2022-11-20T03:41:07;4.00;;;3.70;;
6985;SDS011;3533;51.246;6.850;2022-11-20T03:43:34;4.13;;;3.87;;
6985;SDS011;3533;51.246;6.850;2022-11-20T03:46:00;4.77;;;4.40;;
6985;SDS011;3533;51.246;6.850;2022-11-20T03:48:26;4.80;;;4.50;;
6985;SDS011;3533;51.246;6.850;2022-11-20T03:50:53;4.67;;;4.27;;
6985;SDS011;3533;51.246;6.850;2022-11-20T03:53:31;5.27;;;4.97;;
6985;SDS011;3533;51.246;6.850;2022-11-20T03:55:57;4.63;;;4.43;;
6985;SDS011;3533;51.246;6.850;2022-11-20T03:58:22;4.87;;;4.67;;
6985;SDS011;3533;51.246;6.850;2022-11-20T04:00:48;4.57;;;4.27;;
6985;SDS011;3533;51.246;6.850;2022-11-20T04:03:13;4.60;;;4.30;;
6985;SDS011;3533;51.246;6.850;2022-11-20T04:05:39;3.70;;;3.50;;
6985;SDS011;3533;51.246;6.850;2022-11-20T04:08:04;5.00;;;4.70;;
6985;SDS011;3533;51.246;6.850;2022-11-20T04:10:30;4.60;;;4.30;;
6985;SDS011;3533;51.246;6.850;2022-11-20T04:12:55;4.13;;;3.87;;
6985;SDS011;3533;51.246;6.850;2022-11-20T04:15:21;5.43;;;5.03;;
6985;SDS011;3533;51.246;6.850;2022-11-20T04:17:47;4.37;;;4.07;;
6985;SDS011;3533;51.246;6.850;2022-11-20T04:20:12;4.20;;;4.00;;
6985;SDS011;3533;51.246;6.850;2022-11-20T04:22:38;4.00;;;3.80;;
6985;SDS011;3533;51.246;6.850;2022-11-20T04:25:03;4.50;;;4.20;;
6985;SDS011;3533;51.246;6.850;2022-11-20T04:27:30;4.67;;;4.37;;
6985;SDS011;3533;51.246;6.850;2022-11-20T04:29:55;4.10;;;3.80;;
6985;SDS011;3533;51.246;6.850;2022-11-20T04:32:21;4.50;;;4.20;;
6985;SDS011;3533;51.246;6.850;2022-11-20T04:34:46;4.73;;;4.43;;
6985;SDS011;3533;51.246;6.850;2022-11-20T04:37:12;4.87;;;4.60;;
6985;SDS011;3533;51.246;6.850;2022-11-20T04:39:37;4.23;;;4.03;;
6985;SDS011;3533;51.246;6.850;2022-11-20T04:42:03;4.43;;;4.13;;
6985;SDS011;3533;51.246;6.850;2022-11-20T04:44:47;3.90;;;3.70;;
6985;SDS011;3533;51.246;6.850;2022-11-20T04:47:13;4.20;;;3.90;;
6985;SDS011;3533;51.246;6.850;2022-11-20T04:49:39;3.87;;;3.57;;
6985;SDS011;3533;51.246;6.850;2022-11-20T04:52:05;4.30;;;4.00;;
6985;SDS011;3533;51.246;6.850;2022-11-20T04:54:30;4.53;;;4.23;;
6985;SDS011;3533;51.246;6.850;2022-11-20T04:56:56;3.70;;;3.50;;
6985;SDS011;3533;51.246;6.850;2022-11-20T04:59:21;4.10;;;3.90;;
6985;SDS011;3533;51.246;6.850;2022-11-20T05:01:47;4.10;;;3.90;;
6985;SDS011;3533;51.246;6.850;2022-11-20T05:04:13;4.80;;;4.50;;
6985;SDS011;3533;51.246;6.850;2022-11-20T05:06:38;3.90;;;3.60;;
6985;SDS011;3533;51.246;6.850;2022-11-20T05:09:04;3.97;;;3.70;;
6985;SDS011;3533;51.246;6.850;2022-11-20T05:11:29;3.30;;;3.10;;
6985;SDS011;3533;51.246;6.850;2022-11-20T05:13:58;3.70;;;3.50;;
6985;SDS011;3533;51.246;6.850;2022-11-20T05:16:24;4.73;;;4.43;;
6985;SDS011;3533;51.246;6.850;2022-11-20T05:18:51;3.97;;;3.77;;
6985;SDS011;3533;51.246;6.850;2022-11-20T05:21:17;4.27;;;4.07;;
6985;SDS011;3533;51.246;6.850;2022-11-20T05:23:43;4.50;;;4.30;;
6985;SDS011;3533;51.246;6.850;2022-11-20T05:26:17;4.73;;;4.43;;
6985;SDS011;3533;51.246;6.850;2022-11-20T05:28:43;4.83;;;4.53;;
6985;SDS011;3533;51.246;6.850;2022-11-20T05:31:10;3.70;;;3.50;;
6985;SDS011;3533;51.246;6.850;2022-11-20T05:33:39;4.20;;;3.90;;
6985;SDS011;3533;51.246;6.850;2022-11-20T05:36:06;4.07;;;3.77;;
6985;SDS011;3533;51.246;6.850;2022-11-20T05:38:31;4.00;;;3.80;;
6985;SDS011;3533;51.246;6.850;2022-11-20T05:43:40;4.03;;;3.83;;
6985;SDS011;3533;51.246;6.850;2022-11-20T05:46:07;3.60;;;3.40;;
6985;SDS011;3533;51.246;6.850;2022-11-20T05:48:34;4.27;;;3.87;;
6985;SDS011;3533;51.246;6.850;2022-11-20T05:51:01;4.20;;;3.90;;
6985;SDS011;3533;51.246;6.850;2022-11-20T05:53:28;4.10;;;3.90;;
6985;SDS011;3533;51.246;6.850;2022-11-20T05:56:01;3.77;;;3.50;;
6985;SDS011;3533;51.246;6.850;2022-11-20T05:58:28;4.10;;;3.90;;
6985;SDS011;3533;51.246;6.850;2022-11-20T06:00:54;4.37;;;4.17;;
6985;SDS011;3533;51.246;6.850;2022-11-20T06:03:20;4.00;;;3.80;;
6985;SDS011;3533;51.246;6.850;2022-11-20T06:05:45;4.13;;;3.83;;
6985;SDS011;3533;51.246;6.850;2022-11-20T06:08:11;3.80;;;3.60;;
6985;SDS011;3533;51.246;6.850;2022-11-20T06:10:37;4.67;;;4.27;;
6985;SDS011;3533;51.246;6.850;2022-11-20T06:13:02;4.70;;;4.40;;
6985;SDS011;3533;51.246;6.850;2022-11-20T06:15:28;4.20;;;4.00;;
6985;SDS011;3533;51.246;6.850;2022-11-20T06:17:54;3.60;;;3.40;;
6985;SDS011;3533;51.246;6.850;2022-11-20T06:20:20;4.00;;;3.60;;
6985;SDS011;3533;51.246;6.850;2022-11-20T06:22:46;3.90;;;3.70;;
6985;SDS011;3533;51.246;6.850;2022-11-20T06:25:12;4.33;;;4.03;;
6985;SDS011;3533;51.246;6.850;2022-11-20T06:27:38;4.07;;;3.80;;
6985;SDS011;3533;51.246;6.850;2022-11-20T06:30:04;3.57;;;3.30;;
6985;SDS011;3533;51.246;6.850;2022-11-20T06:32:29;4.27;;;3.97;;
6985;SDS011;3533;51.246;6.850;2022-11-20T06:34:55;4.20;;;3.90;;
6985;SDS011;3533;51.246;6.850;2022-11-20T06:37:20;4.20;;;3.90;;
6985;SDS011;3533;51.246;6.850;2022-11-20T06:39:46;4.33;;;4.00;;
6985;SDS011;3533;51.246;6.850;2022-11-20T06:42:11;3.93;;;3.73;;
6985;SDS011;3533;51.246;6.850;2022-11-20T06:44:37;4.10;;;3.80;;
6985;SDS011;3533;51.246;6.850;2022-11-20T06:47:02;4.03;;;3.83;;
6985;SDS011;3533;51.246;6.850;2022-11-20T06:49:28;3.60;;;3.40;;
6985;SDS011;3533;51.246;6.850;2022-11-20T06:51:54;3.83;;;3.63;;
6985;SDS011;3533;51.246;6.850;2022-11-20T06:54:19;4.17;;;3.97;;
6985;SDS011;3533;51.246;6.850;2022-11-20T06:56:47;3.47;;;3.27;;
6985;SDS011;3533;51.246;6.850;2022-11-20T06:59:13;3.90;;;3.70;;
6985;SDS011;3533;51.246;6.850;2022-11-20T07:01:39;4.03;;;3.83;;
6985;SDS011;3533;51.246;6.850;2022-11-20T07:04:04;4.40;;;4.10;;
6985;SDS011;3533;51.246;6.850;2022-11-20T07:06:30;3.93;;;3.73;;
6985;SDS011;3533;51.246;6.850;2022-11-20T07:08:56;3.63;;;3.33;;
6985;SDS011;3533;51.246;6.850;2022-11-20T07:11:21;3.90;;;3.67;;
6985;SDS011;3533;51.246;6.850;2022-11-20T07:13:48;4.00;;;3.70;;
6985;SDS011;3533;51.246;6.850;2022-11-20T07:16:15;4.13;;;3.83;;
6985;SDS011;3533;51.246;6.850;2022-11-20T07:18:40;3.73;;;3.43;;
6985;SDS011;3533;51.246;6.850;2022-11-20T07:21:07;4.27;;;3.97;;
6985;SDS011;3533;51.246;6.850;2022-11-20T07:23:34;4.10;;;3.90;;
6985;SDS011;3533;51.246;6.850;2022-11-20T07:26:07;3.73;;;3.53;;
6985;SDS011;3533;51.246;6.850;2022-11-20T07:28:34;3.80;;;3.60;;
6985;SDS011;3533;51.246;6.850;2022-11-20T07:31:00;4.30;;;4.00;;
6985;SDS011;3533;51.246;6.850;2022-11-20T07:33:26;3.90;;;3.70;;
6985;SDS011;3533;51.246;6.850;2022-11-20T07:35:52;4.13;;;3.93;;
6985;SDS011;3533;51.246;6.850;2022-11-20T07:38:17;4.30;;;4.00;;
6985;SDS011;3533;51.246;6.850;2022-11-20T07:40:43;4.50;;;4.20;;
6985;SDS011;3533;51.246;6.850;2022-11-20T07:43:08;4.10;;;3.80;;
6985;SDS011;3533;51.246;6.850;2022-11-20T07:45:34;3.87;;;3.67;;
6985;SDS011;3533;51.246;6.850;2022-11-20T07:47:59;3.63;;;3.43;;
6985;SDS011;3533;51.246;6.850;2022-11-20T07:50:25;4.23;;;3.97;;
6985;SDS011;3533;51.246;6.850;2022-11-20T07:52:51;3.53;;;3.33;;
6985;SDS011;3533;51.246;6.850;2022-11-20T07:55:17;3.67;;;3.47;;
6985;SDS011;3533;51.246;6.850;2022-11-20T07:57:43;4.60;;;4.30;;
6985;SDS011;3533;51.246;6.850;2022-11-20T08:00:09;4.10;;;3.90;;
6985;SDS011;3533;51.246;6.850;2022-11-20T08:02:39;4.00;;;3.70;;
6985;SDS011;3533;51.246;6.850;2022-11-20T08:05:05;3.93;;;3.57;;
6985;SDS011;3533;51.246;6.850;2022-11-20T08:07:36;4.10;;;3.70;;
6985;SDS011;3533;51.246;6.850;2022-11-20T08:10:02;3.90;;;3.70;;
6985;SDS011;3533;51.246;6.850;2022-11-20T08:12:28;3.53;;;3.30;;
6985;SDS011;3533;51.246;6.850;2022-11-20T08:15:13;3.60;;;3.40;;
6985;SDS011;3533;51.246;6.850;2022-11-20T08:17:38;3.77;;;3.53;;
6985;SDS011;3533;51.246;6.850;2022-11-20T08:20:04;5.13;;;4.60;;
6985;SDS011;3533;51.246;6.850;2022-11-20T08:22:30;4.17;;;3.87;;
6985;SDS011;3533;51.246;6.850;2022-11-20T08:24:55;4.33;;;4.03;;
6985;SDS011;3533;51.246;6.850;2022-11-20T08:27:21;4.47;;;4.17;;
6985;SDS011;3533;51.246;6.850;2022-11-20T08:29:46;3.87;;;3.57;;
6985;SDS011;3533;51.246;6.850;2022-11-20T08:32:12;3.53;;;3.33;;
6985;SDS011;3533;51.246;6.850;2022-11-20T08:34:37;4.20;;;3.83;;
6985;SDS011;3533;51.246;6.850;2022-11-20T08:37:03;3.97;;;3.73;;
6985;SDS011;3533;51.246;6.850;2022-11-20T08:39:28;3.90;;;3.60;;
6985;SDS011;3533;51.246;6.850;2022-11-20T08:41:54;3.70;;;3.50;;
6985;SDS011;3533;51.246;6.850;2022-11-20T08:44:19;4.47;;;4.20;;
6985;SDS011;3533;51.246;6.850;2022-11-20T08:46:45;3.87;;;3.63;;
6985;SDS011;3533;51.246;6.850;2022-11-20T08:49:12;3.90;;;3.70;;
6985;SDS011;3533;51.246;6.850;2022-11-20T08:51:39;4.60;;;4.20;;
6985;SDS011;3533;51.246;6.850;2022-11-20T08:54:05;3.97;;;3.77;;
6985;SDS011;3533;51.246;6.850;2022-11-20T08:56:31;3.67;;;3.47;;
6985;SDS011;3533;51.246;6.850;2022-11-20T08:58:57;3.77;;;3.43;;
6985;SDS011;3533;51.246;6.850;2022-11-20T09:01:24;3.97;;;3.67;;
6985;SDS011;3533;51.246;6.850;2022-11-20T09:03:50;4.30;;;3.93;;
6985;SDS011;3533;51.246;6.850;2022-11-20T09:06:16;4.40;;;4.10;;
6985;SDS011;3533;51.246;6.850;2022-11-20T09:08:42;4.23;;;4.03;;
6985;SDS011;3533;51.246;6.850;2022-11-20T09:11:07;4.13;;;3.40;;
6985;SDS011;3533;51.246;6.850;2022-11-20T09:13:34;4.53;;;4.23;;
6985;SDS011;3533;51.246;6.850;2022-11-20T09:16:01;4.60;;;4.30;;
6985;SDS011;3533;51.246;6.850;2022-11-20T09:18:29;4.43;;;4.10;;
6985;SDS011;3533;51.246;6.850;2022-11-20T09:20:57;4.20;;;4.00;;
6985;SDS011;3533;51.246;6.850;2022-11-20T09:23:24;4.27;;;3.97;;
6985;SDS011;3533;51.246;6.850;2022-11-20T09:25:50;3.80;;;3.60;;
6985;SDS011;3533;51.246;6.850;2022-11-20T09:28:15;4.30;;;4.00;;
6985;SDS011;3533;51.246;6.850;2022-11-20T09:30:43;4.47;;;4.07;;
6985;SDS011;3533;51.246;6.850;2022-11-20T09:33:09;6.73;;;4.47;;
6985;SDS011;3533;51.246;6.850;2022-11-20T09:35:34;3.90;;;3.60;;
6985;SDS011;3533;51.246;6.850;2022-11-20T09:38:06;3.93;;;3.67;;
6985;SDS011;3533;51.246;6.850;2022-11-20T09:40:32;4.27;;;3.70;;
6985;SDS011;3533;51.246;6.850;2022-11-20T09:43:05;4.40;;;4.20;;
6985;SDS011;3533;51.246;6.850;2022-11-20T09:51:45;4.20;;;3.80;;
6985;SDS011;3533;51.246;6.850;2022-11-20T09:54:21;4.37;;;3.97;;
6985;SDS011;3533;51.246;6.850;2022-11-20T09:56:53;4.13;;;3.83;;
6985;SDS011;3533;51.246;6.850;2022-11-20T10:02:27;4.00;;;3.80;;
6985;SDS011;3533;51.246;6.850;2022-11-20T10:07:53;4.20;;;3.80;;
6985;SDS011;3533;51.246;6.850;2022-11-20T10:19:07;4.23;;;3.93;;
6985;SDS011;3533;51.246;6.850;2022-11-20T10:24:24;3.87;;;3.67;;
6985;SDS011;3533;51.246;6.850;2022-11-20T10:30:12;3.83;;;3.63;;
6985;SDS011;3533;51.246;6.850;2022-11-20T10:32:40;3.90;;;3.60;;
6985;SDS011;3533;51.246;6.850;2022-11-20T10:38:17;4.70;;;4.40;;
6985;SDS011;3533;51.246;6.850;2022-11-20T10:40:51;4.13;;;3.83;;
6985;SDS011;3533;51.246;6.850;2022-11-20T10:43:45;4.37;;;4.10;;
6985;SDS011;3533;51.246;6.850;2022-11-20T10:46:33;3.20;;;3.00;;
6985;SDS011;3533;51.246;6.850;2022-11-20T10:49:15;4.13;;;3.93;;
6985;SDS011;3533;51.246;6.850;2022-11-20T10:54:49;3.93;;;3.73;;
6985;SDS011;3533;51.246;6.850;2022-11-20T11:00:12;3.90;;;3.60;;
6985;SDS011;3533;51.246;6.850;2022-11-20T11:02:42;4.37;;;4.10;;
6985;SDS011;3533;51.246;6.850;2022-11-20T11:07:37;4.07;;;3.80;;
6985;SDS011;3533;51.246;6.850;2022-11-20T11:10:15;4.00;;;3.67;;
6985;SDS011;3533;51.246;6.850;2022-11-20T11:12:45;4.70;;;4.33;;
6985;SDS011;3533;51.246;6.850;2022-11-20T11:18:04;4.13;;;3.83;;
6985;SDS011;3533;51.246;6.850;2022-11-20T11:20:33;3.60;;;3.30;;
6985;SDS011;3533;51.246;6.850;2022-11-20T11:22:59;7.03;;;5.00;;
6985;SDS011;3533;51.246;6.850;2022-11-20T11:25:35;6.20;;;3.87;;
6985;SDS011;3533;51.246;6.850;2022-11-20T11:30:43;3.90;;;3.70;;
6985;SDS011;3533;51.246;6.850;2022-11-20T11:33:11;5.00;;;4.60;;
6985;SDS011;3533;51.246;6.850;2022-11-20T11:35:53;4.37;;;4.07;;
6985;SDS011;3533;51.246;6.850;2022-11-20T11:38:36;4.60;;;4.30;;
6985;SDS011;3533;51.246;6.850;2022-11-20T11:41:09;5.83;;;5.00;;
6985;SDS011;3533;51.246;6.850;2022-11-20T11:43:49;4.20;;;3.90;;
6985;SDS011;3533;51.246;6.850;2022-11-20T11:46:39;5.73;;;5.03;;
6985;SDS011;3533;51.246;6.850;2022-11-20T11:49:16;6.10;;;5.57;;
6985;SDS011;3533;51.246;6.850;2022-11-20T11:51:56;6.70;;;6.20;;
6985;SDS011;3533;51.246;6.850;2022-11-20T11:54:48;7.50;;;6.43;;
6985;SDS011;3533;51.246;6.850;2022-11-20T11:58:04;10.90;;;6.70;;
6985;SDS011;3533;51.246;6.850;2022-11-20T12:00:18;10.13;;;7.27;;
6985;SDS011;3533;51.246;6.850;2022-11-20T12:05:15;6.70;;;6.10;;
6985;SDS011;3533;51.246;6.850;2022-11-20T12:07:49;7.53;;;6.87;;
6985;SDS011;3533;51.246;6.850;2022-11-20T12:10:30;7.30;;;6.67;;
6985;SDS011;3533;51.246;6.850;2022-11-20T12:13:48;17.10;;;9.27;;
6985;SDS011;3533;51.246;6.850;2022-11-20T12:16:04;7.57;;;6.80;;
6985;SDS011;3533;51.246;6.850;2022-11-20T12:18:29;10.27;;;7.17;;
6985;SDS011;3533;51.246;6.850;2022-11-20T12:21:04;10.00;;;6.77;;
6985;SDS011;3533;51.246;6.850;2022-11-20T12:24:02;8.20;;;7.40;;
6985;SDS011;3533;51.246;6.850;2022-11-20T12:26:40;8.23;;;7.43;;
6985;SDS011;3533;51.246;6.850;2022-11-20T12:29:37;11.33;;;8.00;;
6985;SDS011;3533;51.246;6.850;2022-11-20T12:43:21;7.33;;;6.63;;
6985;SDS011;3533;51.246;6.850;2022-11-20T12:49:03;13.13;;;7.00;;
6985;SDS011;3533;51.246;6.850;2022-11-20T13:02:57;10.83;;;7.77;;
6985;SDS011;3533;51.246;6.850;2022-11-20T13:08:33;8.93;;;7.33;;
6985;SDS011;3533;51.246;6.850;2022-11-20T13:11:15;8.30;;;7.43;;
6985;SDS011;3533;51.246;6.850;2022-11-20T13:13:52;9.40;;;7.20;;
6985;SDS011;3533;51.246;6.850;2022-11-20T13:19:03;8.50;;;7.43;;
6985;SDS011;3533;51.246;6.850;2022-11-20T13:21:40;9.10;;;6.93;;
6985;SDS011;3533;51.246;6.850;2022-11-20T13:24:19;11.27;;;7.60;;
6985;SDS011;3533;51.246;6.850;2022-11-20T13:26:59;7.93;;;7.13;;
6985;SDS011;3533;51.246;6.850;2022-11-20T13:29:26;8.20;;;7.13;;
6985;SDS011;3533;51.246;6.850;2022-11-20T13:32:00;9.67;;;8.77;;
6985;SDS011;3533;51.246;6.850;2022-11-20T13:34:51;11.93;;;8.20;;
6985;SDS011;3533;51.246;6.850;2022-11-20T13:37:26;9.40;;;7.33;;
6985;SDS011;3533;51.246;6.850;2022-11-20T13:42:44;8.00;;;7.20;;
6985;SDS011;3533;51.246;6.850;2022-11-20T13:45:26;8.60;;;7.83;;
6985;SDS011;3533;51.246;6.850;2022-11-20T13:47:54;9.70;;;7.20;;
6985;SDS011;3533;51.246;6.850;2022-11-20T13:50:21;9.37;;;7.30;;
6985;SDS011;3533;51.246;6.850;2022-11-20T13:53:13;7.20;;;6.50;;
6985;SDS011;3533;51.246;6.850;2022-11-20T13:56:03;8.53;;;6.70;;
6985;SDS011;3533;51.246;6.850;2022-11-20T14:01:17;10.53;;;6.87;;
6985;SDS011;3533;51.246;6.850;2022-11-20T14:03:44;8.40;;;6.70;;
6985;SDS011;3533;51.246;6.850;2022-11-20T14:06:12;7.93;;;7.10;;
6985;SDS011;3533;51.246;6.850;2022-11-20T14:08:52;9.83;;;6.97;;
6985;SDS011;3533;51.246;6.850;2022-11-20T14:11:18;8.07;;;6.83;;
6985;SDS011;3533;51.246;6.850;2022-11-20T14:13:56;7.47;;;6.67;;
6985;SDS011;3533;51.246;6.850;2022-11-20T14:16:28;8.60;;;7.77;;
6985;SDS011;3533;51.246;6.850;2022-11-20T14:19:17;7.70;;;7.00;;
6985;SDS011;3533;51.246;6.850;2022-11-20T14:21:44;7.30;;;6.57;;
6985;SDS011;3533;51.246;6.850;2022-11-20T14:24:11;7.83;;;7.13;;
6985;SDS011;3533;51.246;6.850;2022-11-20T14:26:41;7.80;;;7.00;;
6985;SDS011;3533;51.246;6.850;2022-11-20T14:29:15;8.10;;;7.40;;
6985;SDS011;3533;51.246;6.850;2022-11-20T14:31:44;8.30;;;7.30;;
6985;SDS011;3533;51.246;6.850;2022-11-20T14:34:17;7.93;;;7.10;;
6985;SDS011;3533;51.246;6.850;2022-11-20T14:36:46;7.90;;;7.13;;
6985;SDS011;3533;51.246;6.850;2022-11-20T14:39:19;7.70;;;7.00;;
6985;SDS011;3533;51.246;6.850;2022-11-20T14:41:52;6.77;;;6.20;;
6985;SDS011;3533;51.246;6.850;2022-11-20T14:44:19;10.70;;;6.97;;
6985;SDS011;3533;51.246;6.850;2022-11-20T14:46:48;7.70;;;6.90;;
6985;SDS011;3533;51.246;6.850;2022-11-20T14:49:15;8.53;;;6.63;;
6985;SDS011;3533;51.246;6.850;2022-11-20T14:51:41;7.93;;;7.23;;
6985;SDS011;3533;51.246;6.850;2022-11-20T14:56:38;7.20;;;6.50;;
6985;SDS011;3533;51.246;6.850;2022-11-20T14:59:04;7.27;;;6.53;;
6985;SDS011;3533;51.246;6.850;2022-11-20T15:01:31;7.27;;;6.57;;
6985;SDS011;3533;51.246;6.850;2022-11-20T15:04:01;17.47;;;6.80;;
6985;SDS011;3533;51.246;6.850;2022-11-20T15:06:32;10.13;;;7.20;;
6985;SDS011;3533;51.246;6.850;2022-11-20T15:08:58;11.10;;;7.60;;
6985;SDS011;3533;51.246;6.850;2022-11-20T15:11:33;9.10;;;6.47;;
6985;SDS011;3533;51.246;6.850;2022-11-20T15:14:04;7.60;;;6.87;;
6985;SDS011;3533;51.246;6.850;2022-11-20T15:16:31;8.03;;;7.07;;
6985;SDS011;3533;51.246;6.850;2022-11-20T15:18:57;8.30;;;6.37;;
6985;SDS011;3533;51.246;6.850;2022-11-20T15:21:23;7.03;;;6.37;;
6985;SDS011;3533;51.246;6.850;2022-11-20T15:23:49;7.60;;;6.80;;
6985;SDS011;3533;51.246;6.850;2022-11-20T15:26:17;9.47;;;7.30;;
6985;SDS011;3533;51.246;6.850;2022-11-20T15:28:49;6.33;;;5.83;;
6985;SDS011;3533;51.246;6.850;2022-11-20T15:31:16;7.10;;;6.60;;
6985;SDS011;3533;51.246;6.850;2022-11-20T15:33:44;7.00;;;6.30;;
6985;SDS011;3533;51.246;6.850;2022-11-20T15:36:10;8.17;;;7.33;;
6985;SDS011;3533;51.246;6.850;2022-11-20T15:38:36;7.80;;;7.00;;
6985;SDS011;3533;51.246;6.850;2022-11-20T15:41:02;6.30;;;5.70;;
6985;SDS011;3533;51.246;6.850;2022-11-20T15:43:27;6.87;;;6.23;;
6985;SDS011;3533;51.246;6.850;2022-11-20T15:45:54;7.87;;;6.47;;
6985;SDS011;3533;51.246;6.850;2022-11-20T15:48:24;8.00;;;7.23;;
6985;SDS011;3533;51.246;6.850;2022-11-20T15:53:39;8.07;;;7.27;;
6985;SDS011;3533;51.246;6.850;2022-11-20T15:56:08;7.10;;;6.43;;
6985;SDS011;3533;51.246;6.850;2022-11-20T15:58:36;11.97;;;7.50;;
6985;SDS011;3533;51.246;6.850;2022-11-20T16:01:02;7.27;;;6.57;;
6985;SDS011;3533;51.246;6.850;2022-11-20T16:03:27;7.40;;;6.80;;
6985;SDS011;3533;51.246;6.850;2022-11-20T16:05:53;10.50;;;7.03;;
6985;SDS011;3533;51.246;6.850;2022-11-20T16:08:18;10.63;;;7.67;;
6985;SDS011;3533;51.246;6.850;2022-11-20T16:10:44;9.60;;;7.60;;
6985;SDS011;3533;51.246;6.850;2022-11-20T16:13:16;9.27;;;7.50;;
6985;SDS011;3533;51.246;6.850;2022-11-20T16:16:02;7.13;;;6.47;;
6985;SDS011;3533;51.246;6.850;2022-11-20T16:18:36;7.90;;;6.80;;
6985;SDS011;3533;51.246;6.850;2022-11-20T16:21:01;7.50;;;6.80;;
6985;SDS011;3533;51.246;6.850;2022-11-20T16:23:27;8.27;;;7.57;;
6985;SDS011;3533;51.246;6.850;2022-11-20T16:25:53;10.07;;;7.43;;
6985;SDS011;3533;51.246;6.850;2022-11-20T16:28:18;7.47;;;6.87;;
6985;SDS011;3533;51.246;6.850;2022-11-20T16:30:44;7.63;;;6.73;;
6985;SDS011;3533;51.246;6.850;2022-11-20T16:33:11;9.03;;;7.47;;
6985;SDS011;3533;51.246;6.850;2022-11-20T16:35:38;8.93;;;6.97;;
6985;SDS011;3533;51.246;6.850;2022-11-20T16:38:04;8.70;;;7.73;;
6985;SDS011;3533;51.246;6.850;2022-11-20T16:40:30;8.63;;;7.00;;
6985;SDS011;3533;51.246;6.850;2022-11-20T16:42:55;8.43;;;7.30;;
6985;SDS011;3533;51.246;6.850;2022-11-20T16:45:22;6.90;;;6.30;;
6985;SDS011;3533;51.246;6.850;2022-11-20T16:47:47;6.73;;;6.20;;
6985;SDS011;3533;51.246;6.850;2022-11-20T16:50:13;7.00;;;6.10;;
6985;SDS011;3533;51.246;6.850;2022-11-20T16:52:39;7.23;;;6.70;;
6985;SDS011;3533;51.246;6.850;2022-11-20T16:55:04;10.43;;;7.03;;
6985;SDS011;3533;51.246;6.850;2022-11-20T16:57:30;7.30;;;6.70;;
6985;SDS011;3533;51.246;6.850;2022-11-20T17:00:00;8.00;;;6.80;;
6985;SDS011;3533;51.246;6.850;2022-11-20T17:02:26;6.87;;;6.40;;
6985;SDS011;3533;51.246;6.850;2022-11-20T17:04:51;7.80;;;7.10;;